Time;durP1;ratioP1;P1;durP2;ratioP2;P2;SDS_P1;SDS_P2;PMS_P1;PMS_P2;Temp;Humidity;BMP_temperature;BMP_pressure;BME280_temperature;BME280_humidity;BME280_pressure;Samples;Min_cycle;Max_cycle;Signal;HPM_P1;HPM_P2
2021/10/30 00:01:18;;;;;;;18.83;13.50;;;;;;;8.41;84.32;100977.16;5011963;28;20273;-72
2021/10/30 00:03:43;;;;;;;16.67;12.20;;;;;;;8.42;83.92;100984.88;5009555;28;20192;-71
2021/10/30 00:06:09;;;;;;;16.90;12.37;;;;;;;8.44;84.46;100987.47;5011538;28;20213;-72
2021/10/30 00:08:34;;;;;;;18.23;12.60;;;;;;;8.42;84.60;100994.19;5011659;28;20195;-72
2021/10/30 00:11:00;;;;;;;18.40;12.03;;;;;;;8.48;83.84;100982.50;5011830;28;20195;-72
2021/10/30 00:13:25;;;;;;;15.67;12.33;;;;;;;8.55;84.35;100979.31;5011678;28;20193;-72
2021/10/30 00:15:52;;;;;;;15.43;11.83;;;;;;;8.58;84.95;100976.88;5014546;28;20623;-72
2021/10/30 00:18:17;;;;;;;14.53;12.17;;;;;;;8.57;85.49;100972.56;5010486;28;20242;-72
2021/10/30 00:20:43;;;;;;;15.40;11.10;;;;;;;8.60;85.47;100969.22;5011872;28;20191;-72
2021/10/30 00:23:09;;;;;;;14.93;11.60;;;;;;;8.62;85.17;100963.34;5011416;28;20191;-72
2021/10/30 00:25:34;;;;;;;16.17;11.73;;;;;;;8.63;84.50;100970.22;5026388;28;20557;-72
2021/10/30 00:27:59;;;;;;;17.27;11.10;;;;;;;8.59;84.67;100975.16;5011580;28;20210;-72
2021/10/30 00:30:25;;;;;;;16.00;11.63;;;;;;;8.52;85.29;100981.78;5013691;28;20187;-72
2021/10/30 00:32:50;;;;;;;12.27;10.10;;;;;;;8.55;84.74;100973.34;5010505;28;20234;-72
2021/10/30 00:35:15;;;;;;;14.13;11.73;;;;;;;8.44;85.23;100980.66;5010750;28;20211;-72
2021/10/30 00:37:41;;;;;;;18.07;10.40;;;;;;;8.47;84.45;100992.69;5010788;28;20224;-72
2021/10/30 00:40:07;;;;;;;15.30;10.70;;;;;;;8.31;84.00;100995.56;5011509;28;20249;-72
2021/10/30 00:42:32;;;;;;;12.37;9.77;;;;;;;8.35;83.98;100982.97;5011019;28;20199;-72
2021/10/30 00:44:58;;;;;;;14.20;10.33;;;;;;;8.36;84.59;100994.03;5011335;28;20228;-72
2021/10/30 00:47:23;;;;;;;13.13;9.73;;;;;;;8.33;84.59;100979.50;5011445;28;20240;-72
2021/10/30 00:49:48;;;;;;;11.87;10.00;;;;;;;8.30;83.59;100981.94;5012009;28;20180;-72
2021/10/30 00:52:14;;;;;;;12.87;10.03;;;;;;;8.28;83.91;100983.59;5011061;28;20191;-72
2021/10/30 00:54:43;;;;;;;14.67;10.40;;;;;;;8.23;84.70;100987.69;5011567;28;20681;-72
2021/10/30 00:57:10;;;;;;;11.27;9.33;;;;;;;8.21;83.99;100988.47;5010753;28;20191;-72
2021/10/30 00:59:36;;;;;;;12.80;9.70;;;;;;;8.13;84.78;100993.31;5011526;28;20199;-72
2021/10/30 01:02:01;;;;;;;10.93;9.03;;;;;;;8.11;84.23;100999.16;5010725;28;20200;-72
2021/10/30 01:04:27;;;;;;;11.60;8.97;;;;;;;8.07;84.03;100993.09;5010550;28;20218;-72
2021/10/30 01:06:54;;;;;;;12.83;10.20;;;;;;;8.06;84.49;100993.06;5010144;28;20191;-72
2021/10/30 01:09:20;;;;;;;12.20;9.63;;;;;;;8.03;83.74;100993.84;5010577;28;20583;-72
2021/10/30 01:11:47;;;;;;;12.77;9.97;;;;;;;8.02;84.59;100996.34;5009429;28;20207;-72
2021/10/30 01:14:13;;;;;;;11.67;9.10;;;;;;;8.05;84.37;100998.97;5010534;28;20237;-72
2021/10/30 01:16:39;;;;;;;11.87;9.70;;;;;;;8.05;84.07;100999.84;5004620;28;20179;-72
2021/10/30 01:19:05;;;;;;;13.30;9.53;;;;;;;8.09;84.20;100996.56;5011275;28;20724;-72
2021/10/30 01:21:33;;;;;;;12.00;9.03;;;;;;;8.10;84.32;100999.97;5010133;28;20187;-72
2021/10/30 01:24:00;;;;;;;12.80;9.43;;;;;;;8.05;84.36;101002.38;5009954;28;20677;-72
2021/10/30 01:26:25;;;;;;;11.27;9.50;;;;;;;8.03;83.75;101003.16;5007694;28;20191;-72
2021/10/30 01:28:52;;;;;;;14.50;10.00;;;;;;;7.98;84.41;101009.78;5010536;28;20175;-72
2021/10/30 01:31:20;;;;;;;13.60;9.83;;;;;;;8.01;85.04;101012.47;4991033;28;20245;-72
2021/10/30 01:33:50;;;;;;;12.13;8.83;;;;;;;7.96;84.22;101007.19;5007507;28;20265;-72
2021/10/30 01:36:17;;;;;;;11.73;9.13;;;;;;;7.90;84.23;101017.19;5009372;28;20234;-72
2021/10/30 01:38:43;;;;;;;11.03;8.93;;;;;;;8.01;85.04;101013.31;5008790;28;20200;-72
2021/10/30 01:41:09;;;;;;;15.10;10.50;;;;;;;7.99;85.28;101007.31;5009552;28;20668;-72
2021/10/30 01:43:34;;;;;;;15.93;10.60;;;;;;;8.07;84.91;101010.09;5010637;28;20191;-72
2021/10/30 01:45:59;;;;;;;12.73;9.90;;;;;;;8.08;86.08;101002.50;5009709;28;20218;-72
2021/10/30 01:48:37;;;;;;;13.57;10.30;;;;;;;8.11;85.60;101001.72;5010646;28;20199;-72
2021/10/30 01:51:05;;;;;;;14.67;9.80;;;;;;;8.09;84.96;100998.25;5009805;28;20191;-72
2021/10/30 01:53:31;;;;;;;13.33;9.57;;;;;;;8.05;85.00;100998.97;5010069;28;20198;-71
2021/10/30 01:55:56;;;;;;;13.70;10.13;;;;;;;7.93;85.09;100996.03;5008884;28;20557;-71
2021/10/30 01:58:21;;;;;;;13.77;9.13;;;;;;;7.97;85.12;100996.16;5010196;28;20200;-72
2021/10/30 02:00:48;;;;;;;12.50;9.40;;;;;;;7.92;85.24;101005.34;5008366;28;20733;-72
2021/10/30 02:03:14;;;;;;;13.27;9.07;;;;;;;7.93;85.02;100998.59;5008097;28;20265;-72
2021/10/30 02:05:39;;;;;;;13.27;10.17;;;;;;;7.84;85.18;100991.50;5006827;28;20700;-72
2021/10/30 02:08:04;;;;;;;13.07;9.40;;;;;;;7.92;84.27;100989.22;5008813;28;20274;-72
2021/10/30 02:10:30;;;;;;;12.33;9.73;;;;;;;7.93;85.64;100990.94;5009618;28;20187;-72
2021/10/30 02:12:56;;;;;;;13.80;9.73;;;;;;;7.92;85.99;100987.50;5010197;28;20559;-72
2021/10/30 02:15:22;;;;;;;12.10;9.30;;;;;;;7.90;85.08;100989.16;5010203;28;20202;-71
2021/10/30 02:17:47;;;;;;;12.00;9.07;;;;;;;7.90;85.51;100978.09;5008909;28;21038;-72
2021/10/30 02:20:13;;;;;;;12.90;8.90;;;;;;;7.94;85.03;100978.25;5010385;28;20661;-71
2021/10/30 02:22:38;;;;;;;12.17;9.17;;;;;;;7.95;85.33;100985.06;5008346;28;20203;-72
2021/10/30 02:25:09;;;;;;;11.93;9.57;;;;;;;7.96;85.39;100980.81;5008802;28;20207;-72
2021/10/30 02:27:35;;;;;;;13.67;9.53;;;;;;;7.98;85.36;100982.63;5010042;28;20187;-72
2021/10/30 02:30:02;;;;;;;10.40;8.67;;;;;;;7.91;85.37;100984.91;5009473;28;20214;-72
2021/10/30 02:32:27;;;;;;;14.63;9.43;;;;;;;7.96;84.89;100981.69;5005934;28;20183;-73
2021/10/30 02:34:53;;;;;;;11.27;9.13;;;;;;;7.93;85.76;100976.47;5011399;28;20215;-72
2021/10/30 02:37:19;;;;;;;10.73;8.47;;;;;;;7.92;85.35;100981.56;5009611;28;20565;-72
2021/10/30 02:39:44;;;;;;;10.70;8.63;;;;;;;7.84;85.88;100981.28;5004569;28;20179;-72
2021/10/30 02:42:09;;;;;;;11.63;8.37;;;;;;;7.85;85.60;100987.25;5009933;28;20183;-72
2021/10/30 02:44:34;;;;;;;11.97;9.27;;;;;;;7.86;84.86;100978.78;5009734;28;20211;-72
2021/10/30 02:47:02;;;;;;;12.20;8.83;;;;;;;7.85;86.04;100974.53;5009155;28;20645;-71
2021/10/30 02:49:27;;;;;;;11.10;8.50;;;;;;;7.85;85.26;100965.22;5007551;28;20199;-71
2021/10/30 02:51:53;;;;;;;11.97;8.80;;;;;;;7.88;85.30;100964.44;5009247;28;20191;-71
2021/10/30 02:54:18;;;;;;;11.13;8.23;;;;;;;7.87;85.53;100962.72;5005592;28;20218;-72
2021/10/30 02:56:44;;;;;;;10.60;8.43;;;;;;;7.87;85.32;100967.81;5008830;28;20276;-72
2021/10/30 02:59:09;;;;;;;11.97;8.40;;;;;;;7.79;85.41;100974.34;5009599;28;20286;-71
2021/10/30 03:01:34;;;;;;;11.53;8.33;;;;;;;7.72;85.39;100967.28;5007240;28;20274;-71
2021/10/30 03:04:00;;;;;;;10.53;7.73;;;;;;;7.68;84.82;100973.09;5007738;28;20322;-72
2021/10/30 03:06:26;;;;;;;14.30;8.00;;;;;;;7.67;85.66;100976.47;5007736;28;20250;-71
2021/10/30 03:08:52;;;;;;;10.23;8.40;;;;;;;7.65;84.88;100986.59;5008523;28;20199;-71
2021/10/30 03:11:19;;;;;;;11.90;8.00;;;;;;;7.61;85.33;100976.28;5008916;28;20754;-71
2021/10/30 03:13:45;;;;;;;10.20;8.30;;;;;;;7.57;85.61;100969.34;5008454;28;20218;-71
2021/10/30 03:16:11;;;;;;;12.20;8.23;;;;;;;7.59;85.10;100963.47;5007252;28;20187;-71
2021/10/30 03:18:37;;;;;;;9.53;7.73;;;;;;;7.58;85.00;100971.06;5008472;28;20217;-72
2021/10/30 03:21:03;;;;;;;10.07;8.33;;;;;;;7.52;85.64;100959.03;5009336;28;20214;-71
2021/10/30 03:23:28;;;;;;;9.67;8.10;;;;;;;7.51;84.45;100958.97;5008325;28;20186;-72
2021/10/30 03:25:53;;;;;;;10.60;8.50;;;;;;;7.49;85.16;100955.47;5007495;28;20270;-71
2021/10/30 03:28:18;;;;;;;9.13;7.53;;;;;;;7.52;85.00;100959.03;5005056;28;20218;-71
2021/10/30 03:30:44;;;;;;;10.33;8.00;;;;;;;7.47;84.34;100957.13;5007671;28;20231;-71
2021/10/30 03:33:10;;;;;;;12.23;8.60;;;;;;;7.48;85.38;100954.63;5006415;28;20198;-71
2021/10/30 03:35:36;;;;;;;11.47;8.87;;;;;;;7.44;85.86;100957.00;5000068;28;20210;-71
2021/10/30 03:38:02;;;;;;;9.83;8.30;;;;;;;7.45;86.05;100946.00;5007922;28;20840;-71
2021/10/30 03:40:27;;;;;;;11.20;7.67;;;;;;;7.48;85.79;100941.00;5005709;28;20214;-71
2021/10/30 03:42:52;;;;;;;9.80;8.00;;;;;;;7.50;86.58;100941.91;5007856;28;20196;-72
2021/10/30 03:45:18;;;;;;;9.57;7.67;;;;;;;7.50;86.24;100947.00;5008245;28;20220;-71
2021/10/30 03:47:43;;;;;;;11.97;8.47;;;;;;;7.43;86.05;100942.56;5009118;28;20191;-71
2021/10/30 03:50:09;;;;;;;11.00;8.27;;;;;;;7.43;86.18;100940.00;5010098;28;20226;-71
2021/10/30 03:52:35;;;;;;;11.17;7.97;;;;;;;7.44;86.31;100950.25;5012075;28;20195;-71
2021/10/30 03:55:01;;;;;;;10.33;7.60;;;;;;;7.42;85.67;100946.75;5010674;28;20254;-71
2021/10/30 03:57:26;;;;;;;9.03;7.43;;;;;;;7.34;85.80;100942.25;5009896;28;20661;-72
2021/10/30 03:59:51;;;;;;;9.27;8.13;;;;;;;7.34;85.59;100940.56;5012724;28;20262;-71
2021/10/30 04:02:18;;;;;;;11.87;8.07;;;;;;;7.34;86.35;100950.75;5011225;28;20684;-71
2021/10/30 04:04:44;;;;;;;9.03;7.10;;;;;;;7.40;85.75;100957.72;5010958;28;20242;-71
2021/10/30 04:07:09;;;;;;;9.37;7.60;;;;;;;7.35;86.39;100949.06;5011475;28;20203;-71
2021/10/30 04:09:39;;;;;;;14.73;8.67;;;;;;;7.34;86.39;100960.94;5009575;28;20210;-72
2021/10/30 04:12:05;;;;;;;10.27;8.00;;;;;;;7.40;86.07;100965.34;5012505;28;20660;-72
2021/10/30 04:14:30;;;;;;;10.87;8.07;;;;;;;7.31;87.11;100959.94;5011759;28;20253;-72
2021/10/30 04:16:55;;;;;;;8.77;7.40;;;;;;;7.35;86.57;100965.22;5011785;28;20196;-72
2021/10/30 04:19:21;;;;;;;11.27;8.17;;;;;;;7.35;85.71;100965.22;5012557;28;20596;-72
2021/10/30 04:21:46;;;;;;;11.47;8.03;;;;;;;7.38;86.15;100967.00;5011060;28;20279;-72
2021/10/30 04:24:12;;;;;;;11.63;8.83;;;;;;;7.38;85.74;100956.81;5011146;28;20234;-72
2021/10/30 04:26:38;;;;;;;11.50;9.27;;;;;;;7.37;85.66;100950.00;5009281;28;20183;-72
2021/10/30 04:29:04;;;;;;;11.40;9.17;;;;;;;7.38;86.46;100947.47;5012254;28;20278;-72
2021/10/30 04:31:30;;;;;;;13.47;9.73;;;;;;;7.36;86.45;100945.69;5013943;28;20183;-72
2021/10/30 04:34:00;;;;;;;12.00;9.67;;;;;;;7.34;85.99;100935.47;5011365;28;20235;-72
2021/10/30 04:36:28;;;;;;;12.30;9.77;;;;;;;7.32;86.77;100937.09;5007484;28;20222;-72
2021/10/30 04:38:53;;;;;;;13.30;9.83;;;;;;;7.37;87.08;100938.09;5011345;28;20290;-72
2021/10/30 04:41:19;;;;;;;12.17;9.50;;;;;;;7.38;86.83;100941.53;5010488;28;20275;-72
2021/10/30 04:43:46;;;;;;;13.00;9.43;;;;;;;7.38;87.42;100946.63;5008274;28;20573;-72
2021/10/30 04:46:17;;;;;;;13.57;9.77;;;;;;;7.44;86.98;100954.47;5009921;28;20212;-72
2021/10/30 04:48:43;;;;;;;15.33;9.40;;;;;;;7.40;86.66;100961.16;5005714;28;20186;-72
2021/10/30 04:51:08;;;;;;;13.50;9.80;;;;;;;7.37;86.82;100957.63;5009721;28;20271;-72
2021/10/30 04:53:35;;;;;;;14.10;9.53;;;;;;;7.41;87.40;100959.47;5023284;28;20278;-72
2021/10/30 04:56:02;;;;;;;15.27;10.60;;;;;;;7.41;86.91;100959.47;5009331;28;20196;-72
2021/10/30 04:58:28;;;;;;;14.70;9.67;;;;;;;7.34;86.31;100960.94;5010096;28;20527;-72
2021/10/30 05:00:53;;;;;;;16.27;10.60;;;;;;;7.41;86.20;100955.22;5009285;28;20248;-72
2021/10/30 05:03:19;;;;;;;13.00;9.37;;;;;;;7.34;85.88;100958.41;5010071;28;20195;-72
2021/10/30 05:05:44;;;;;;;12.97;9.97;;;;;;;7.29;85.89;100953.97;5009084;28;20208;-72
2021/10/30 05:08:09;;;;;;;14.17;10.40;;;;;;;7.28;86.18;100958.16;5009576;28;20206;-72
2021/10/30 05:10:35;;;;;;;13.27;9.57;;;;;;;7.27;85.97;100948.81;5011319;28;20238;-72
2021/10/30 05:13:00;;;;;;;12.20;9.57;;;;;;;7.26;85.06;100943.66;5010446;28;20199;-72
2021/10/30 05:15:25;;;;;;;14.03;10.03;;;;;;;7.26;85.57;100942.00;5011215;28;20230;-72
2021/10/30 05:17:50;;;;;;;17.43;11.63;;;;;;;7.28;86.95;100922.53;5011260;28;20171;-72
2021/10/30 05:20:16;;;;;;;16.93;11.03;;;;;;;7.31;86.49;100921.75;5009803;28;20198;-72
2021/10/30 05:22:41;;;;;;;15.33;11.27;;;;;;;7.32;86.47;100915.88;5010662;28;20195;-72
2021/10/30 05:25:07;;;;;;;19.63;12.33;;;;;;;7.37;86.70;100925.38;5011069;28;20226;-72
2021/10/30 05:27:32;;;;;;;15.53;11.80;;;;;;;7.40;87.18;100927.16;5008957;28;20192;-72
2021/10/30 05:29:58;;;;;;;16.03;12.27;;;;;;;7.41;87.18;100931.47;5008746;28;20230;-72
2021/10/30 05:32:23;;;;;;;15.97;11.33;;;;;;;7.40;87.30;100940.75;5008616;28;20245;-72
2021/10/30 05:35:14;;;;;;;15.40;11.90;;;;;;;7.36;86.53;100946.56;5009517;28;20220;-72
2021/10/30 05:38:16;;;;;;;16.40;12.20;;;;;;;7.36;86.50;100944.03;4988066;28;20203;-71
2021/10/30 05:40:42;;;;;;;15.13;12.43;;;;;;;7.31;86.32;100953.19;5009506;28;20965;-72
2021/10/30 05:43:11;;;;;;;17.53;13.00;;;;;;;7.33;86.88;100961.72;5010799;28;20691;-72
2021/10/30 05:45:38;;;;;;;18.60;12.30;;;;;;;7.33;86.40;100968.53;5010435;28;20304;-72
2021/10/30 05:48:05;;;;;;;16.20;11.13;;;;;;;7.30;85.56;100976.06;5010908;28;20194;-72
2021/10/30 05:50:31;;;;;;;14.23;11.60;;;;;;;7.21;85.31;100963.00;5010508;28;20191;-72
2021/10/30 05:52:57;;;;;;;15.90;12.30;;;;;;;7.20;85.52;100961.28;5010781;28;20206;-72
2021/10/30 05:55:22;;;;;;;16.17;10.90;;;;;;;7.22;86.20;100968.16;5010318;28;20222;-72
2021/10/30 05:57:48;;;;;;;15.73;11.50;;;;;;;7.23;85.66;100962.25;4992781;28;20191;-72
2021/10/30 06:00:13;;;;;;;16.90;11.80;;;;;;;7.19;86.03;100951.91;5010554;28;20703;-72
2021/10/30 06:02:39;;;;;;;15.60;11.80;;;;;;;7.17;85.65;100943.34;5010491;28;20279;-72
2021/10/30 06:05:04;;;;;;;16.23;11.87;;;;;;;7.16;85.15;100945.03;5008912;28;20305;-72
2021/10/30 06:07:29;;;;;;;14.83;11.40;;;;;;;7.12;86.41;100955.06;5010113;28;20271;-72
2021/10/30 06:09:55;;;;;;;15.30;11.50;;;;;;;7.11;85.72;100955.88;5010552;28;20699;-70
2021/10/30 06:12:20;;;;;;;16.73;11.77;;;;;;;7.11;85.32;100973.69;5010446;28;20191;-72
2021/10/30 06:14:45;;;;;;;16.77;12.27;;;;;;;7.14;86.41;100961.94;5009509;28;20211;-72
2021/10/30 06:17:11;;;;;;;15.73;11.33;;;;;;;7.10;86.30;100949.91;5010131;28;20248;-72
2021/10/30 06:19:36;;;;;;;15.07;12.53;;;;;;;7.13;85.88;100952.56;5010170;28;20179;-72
2021/10/30 06:22:01;;;;;;;17.70;13.37;;;;;;;7.24;86.87;100952.94;5010152;28;20594;-71
2021/10/30 06:24:27;;;;;;;18.70;12.53;;;;;;;7.37;87.01;100955.94;5009992;28;20325;-72
2021/10/30 06:26:52;;;;;;;15.80;12.37;;;;;;;7.46;86.50;100950.31;5009978;28;20184;-72
2021/10/30 06:29:18;;;;;;;15.60;11.80;;;;;;;7.45;86.76;100954.53;5010207;28;20672;-72
2021/10/30 06:31:43;;;;;;;15.43;12.23;;;;;;;7.52;85.70;100948.81;5009784;28;20565;-72
2021/10/30 06:34:09;;;;;;;14.43;11.63;;;;;;;7.56;85.67;100930.25;5009927;28;20577;-72
2021/10/30 06:36:35;;;;;;;17.20;11.90;;;;;;;7.65;85.99;100930.53;5010132;28;20175;-72
2021/10/30 06:39:00;;;;;;;21.47;13.43;;;;;;;7.78;86.66;100926.72;5010151;28;20620;-72
2021/10/30 06:41:25;;;;;;;17.67;12.23;;;;;;;7.86;86.04;100926.16;5009882;28;20600;-72
2021/10/30 06:43:51;;;;;;;17.13;12.90;;;;;;;7.91;86.12;100923.72;5009851;28;20702;-72
2021/10/30 06:46:16;;;;;;;15.03;11.87;;;;;;;7.95;86.55;100920.47;5009715;28;20787;-72
2021/10/30 06:48:41;;;;;;;14.77;12.23;;;;;;;8.00;85.95;100912.13;5009806;28;20219;-72
2021/10/30 06:51:09;;;;;;;17.33;12.27;;;;;;;8.03;86.66;100916.47;5009918;28;20282;-72
2021/10/30 06:53:34;;;;;;;16.83;12.10;;;;;;;8.08;86.19;100913.25;5009659;28;20175;-72
2021/10/30 06:56:00;;;;;;;16.10;12.43;;;;;;;8.17;86.20;100922.84;5009468;28;20206;-72
2021/10/30 06:58:29;;;;;;;18.30;12.43;;;;;;;8.25;86.75;100924.81;5019627;28;20206;-72
2021/10/30 07:00:58;;;;;;;17.03;11.97;;;;;;;8.35;85.78;100921.75;5029435;28;20268;-72
2021/10/30 07:03:24;;;;;;;15.13;12.20;;;;;;;8.45;85.88;100921.19;5029256;28;20653;-72
2021/10/30 07:05:49;;;;;;;14.57;12.23;;;;;;;8.50;85.23;100918.75;5044332;28;20725;-72
2021/10/30 07:08:14;;;;;;;17.60;13.30;;;;;;;8.56;85.65;100917.25;5029387;28;20258;-72
2021/10/30 07:10:40;;;;;;;15.00;11.63;;;;;;;8.67;84.93;100910.75;5029367;28;20875;-72
2021/10/30 07:13:06;;;;;;;14.97;11.43;;;;;;;8.78;84.19;100913.59;5029127;28;20194;-72
2021/10/30 07:15:31;;;;;;;17.00;11.50;;;;;;;8.91;83.07;100910.56;5023794;28;20258;-72
2021/10/30 07:17:56;;;;;;;15.07;11.23;;;;;;;9.00;83.32;100909.13;5029118;28;20225;-72
2021/10/30 07:20:22;;;;;;;15.33;11.17;;;;;;;9.02;82.64;100912.56;5029196;28;20248;-72
2021/10/30 07:22:49;;;;;;;14.23;11.23;;;;;;;9.11;82.88;100901.72;5029353;28;20187;-72
2021/10/30 07:25:17;;;;;;;18.10;11.13;;;;;;;9.17;82.41;100896.81;5030138;28;20206;-72
2021/10/30 07:27:43;;;;;;;13.47;10.47;;;;;;;9.25;81.67;100895.28;5033074;28;20198;-72
2021/10/30 07:30:10;;;;;;;13.13;10.60;;;;;;;9.36;81.79;100899.00;5028498;28;20202;-72
2021/10/30 07:32:36;;;;;;;14.13;10.13;;;;;;;9.37;81.79;100893.91;5012943;28;20575;-72
2021/10/30 07:35:04;;;;;;;13.73;10.43;;;;;;;9.37;82.27;100888.81;5013738;28;20203;-73
2021/10/30 07:37:30;;;;;;;13.17;10.67;;;;;;;9.39;82.62;100893.94;5013358;28;20185;-72
2021/10/30 07:39:56;;;;;;;13.97;10.50;;;;;;;9.43;82.40;100882.97;5013567;28;20266;-72
2021/10/30 07:42:22;;;;;;;16.83;10.53;;;;;;;9.47;82.23;100882.22;5013637;28;20183;-72
2021/10/30 07:44:47;;;;;;;12.87;10.80;;;;;;;9.49;82.71;100878.03;5012792;28;20708;-72
2021/10/30 07:47:13;;;;;;;15.30;11.37;;;;;;;9.54;83.22;100881.53;5013372;28;20715;-72
2021/10/30 07:49:39;;;;;;;12.50;10.37;;;;;;;9.49;82.93;100878.88;5011967;28;20567;-72
2021/10/30 07:52:06;;;;;;;12.53;9.83;;;;;;;9.54;82.14;100882.38;5011789;28;20184;-72
2021/10/30 07:54:34;;;;;;;12.80;9.90;;;;;;;9.68;81.62;100875.06;5012953;28;20207;-72
2021/10/30 07:56:59;;;;;;;12.47;9.87;;;;;;;9.72;81.93;100870.03;5012583;28;20198;-72
2021/10/30 07:59:25;;;;;;;11.83;9.87;;;;;;;9.84;80.86;100870.34;5008644;28;20560;-72
2021/10/30 08:01:52;;;;;;;13.27;9.83;;;;;;;9.96;79.55;100872.31;5012655;28;20211;-72
2021/10/30 08:04:18;;;;;;;10.97;9.40;;;;;;;10.05;80.05;100875.94;5012578;28;20214;-72
2021/10/30 08:06:44;;;;;;;13.90;9.47;;;;;;;10.36;79.17;100865.53;5012303;28;20194;-71
2021/10/30 08:09:10;;;;;;;11.23;9.97;;;;;;;10.66;78.56;100865.28;5012737;28;20183;-72
2021/10/30 08:11:35;;;;;;;11.80;8.80;;;;;;;10.85;77.13;100865.66;5012572;28;20202;-72
2021/10/30 08:14:02;;;;;;;11.67;8.90;;;;;;;10.86;76.69;100859.69;5012477;28;20245;-72
2021/10/30 08:16:28;;;;;;;11.93;9.53;;;;;;;10.80;77.31;100858.72;5010768;28;20183;-72
2021/10/30 08:18:54;;;;;;;11.57;9.13;;;;;;;11.05;76.65;100848.06;5010698;28;20206;-72
2021/10/30 08:21:20;;;;;;;9.87;8.80;;;;;;;11.36;75.07;100837.47;5010383;28;20247;-71
2021/10/30 08:23:46;;;;;;;12.03;9.00;;;;;;;11.65;74.33;100843.94;5012345;28;20254;-72
2021/10/30 08:26:12;;;;;;;13.93;9.07;;;;;;;11.90;73.54;100844.31;5012040;28;20616;-72
2021/10/30 08:28:37;;;;;;;13.10;8.87;;;;;;;12.05;72.81;100852.25;5012338;28;20266;-72
2021/10/30 08:31:02;;;;;;;12.07;9.20;;;;;;;12.09;72.47;100858.28;5012273;28;20210;-72
2021/10/30 08:33:28;;;;;;;11.33;9.03;;;;;;;12.33;71.13;100859.47;5012445;28;20665;-72
2021/10/30 08:35:53;;;;;;;13.67;8.83;;;;;;;12.55;70.80;100858.88;5011986;28;20199;-72
2021/10/30 08:38:18;;;;;;;11.97;8.80;;;;;;;12.51;70.27;100877.66;5011040;28;20192;-72
2021/10/30 08:40:44;;;;;;;10.30;9.20;;;;;;;13.21;68.63;100870.72;5010655;28;20353;-72
2021/10/30 08:43:18;;;;;;;11.77;9.87;;;;;;;13.70;67.75;100865.13;4999066;28;20266;-73
2021/10/30 08:45:43;;;;;;;11.37;8.80;;;;;;;14.44;64.36;100864.72;5010315;28;20692;-72
2021/10/30 08:48:09;;;;;;;11.50;8.90;;;;;;;17.36;55.37;100847.81;5011870;28;20206;-72
2021/10/30 08:50:35;;;;;;;11.10;8.93;;;;;;;19.51;48.30;100837.41;5012036;28;20190;-72
2021/10/30 08:53:02;;;;;;;10.20;8.83;;;;;;;19.93;45.90;100837.50;5011967;28;20177;-72
2021/10/30 08:55:27;;;;;;;11.67;8.77;;;;;;;16.37;55.27;100858.75;5011750;28;20302;-72
2021/10/30 08:57:53;;;;;;;11.17;9.97;;;;;;;14.50;61.15;100862.16;5011098;28;20365;-72
2021/10/30 09:00:25;;;;;;;12.50;10.13;;;;;;;13.81;65.08;100859.19;5011677;28;20200;-72
2021/10/30 09:02:55;;;;;;;12.27;9.93;;;;;;;13.82;64.98;100853.22;5011666;28;20237;-72
2021/10/30 09:05:23;;;;;;;12.60;9.83;;;;;;;16.43;57.64;100832.03;5011514;28;20242;-71
2021/10/30 09:07:53;;;;;;;11.30;9.80;;;;;;;16.04;56.54;100835.63;5011481;28;20180;-72
2021/10/30 09:10:23;;;;;;;10.13;9.10;;;;;;;15.70;58.18;100846.88;5011313;28;20196;-72
2021/10/30 09:12:53;;;;;;;13.77;10.27;;;;;;;14.39;61.66;100850.09;5011384;28;20192;-72
2021/10/30 09:15:32;;;;;;;14.00;11.60;;;;;;;14.07;64.63;100847.34;5011305;28;20214;-72
2021/10/30 09:17:58;;;;;;;12.97;11.17;;;;;;;14.10;63.89;100849.06;5011423;28;20207;-72
2021/10/30 09:20:30;;;;;;;13.10;11.23;;;;;;;14.67;62.76;100857.94;5011258;28;20188;-72
2021/10/30 09:22:55;;;;;;;13.67;11.27;;;;;;;14.68;62.62;100853.66;5010016;28;20719;-72
2021/10/30 09:25:21;;;;;;;12.50;10.63;;;;;;;16.54;56.86;100844.03;5011058;28;20219;-72
2021/10/30 09:27:56;;;;;;;13.40;10.83;;;;;;;17.84;53.93;100834.47;5011084;28;20668;-72
2021/10/30 09:30:25;;;;;;;12.53;10.60;;;;;;;16.94;55.34;100824.00;5010893;28;20663;-72
2021/10/30 09:32:57;;;;;;;16.37;11.70;;;;;;;15.40;59.72;100836.59;5011036;28;20548;-72
2021/10/30 09:35:42;;;;;;;12.33;10.77;;;;;;;15.00;61.16;100844.25;5010741;28;20218;-72
2021/10/30 09:38:35;;;;;;;13.13;10.67;;;;;;;14.64;64.13;100842.44;5008359;28;20608;-72
2021/10/30 09:41:02;;;;;;;12.63;10.90;;;;;;;14.33;64.24;100840.66;4987715;28;20545;-72
2021/10/30 09:43:28;;;;;;;12.83;11.43;;;;;;;14.35;63.31;100835.47;5003833;28;20183;-72
2021/10/30 09:46:03;;;;;;;14.97;11.73;;;;;;;14.99;62.80;100825.34;5009158;28;20218;-72
2021/10/30 09:48:31;;;;;;;12.63;10.50;;;;;;;15.70;60.88;100817.63;5007497;28;20187;-72
2021/10/30 09:50:59;;;;;;;12.93;11.10;;;;;;;14.97;62.38;100823.63;5010687;28;20199;-72
2021/10/30 09:53:41;;;;;;;16.77;11.00;;;;;;;14.24;65.25;100822.56;5010604;28;20187;-73
2021/10/30 09:56:09;;;;;;;12.70;11.23;;;;;;;14.22;67.11;100818.28;5010140;28;20557;-72
2021/10/30 09:58:38;;;;;;;13.93;11.10;;;;;;;14.18;66.30;100811.34;5008364;28;20187;-72
2021/10/30 10:01:15;;;;;;;15.20;11.60;;;;;;;14.46;65.42;100803.72;5009838;28;20209;-73
2021/10/30 10:03:42;;;;;;;18.73;11.00;;;;;;;15.18;63.98;100792.66;4991893;28;20216;-73
2021/10/30 10:06:10;;;;;;;13.33;11.33;;;;;;;14.60;65.05;100789.16;5010304;28;20235;-73
2021/10/30 10:08:39;;;;;;;13.33;11.60;;;;;;;14.19;65.32;100780.44;5010692;28;20190;-73
2021/10/30 10:11:07;;;;;;;13.87;11.47;;;;;;;14.14;66.75;100787.28;5010203;28;20199;-73
2021/10/30 10:13:36;;;;;;;12.53;10.57;;;;;;;13.95;67.41;100794.94;5006757;28;20241;-73
2021/10/30 10:16:02;;;;;;;14.30;10.83;;;;;;;14.06;67.49;100785.53;5007019;28;20191;-73
2021/10/30 10:18:28;;;;;;;14.43;12.00;;;;;;;14.38;66.24;100776.25;5025654;28;20540;-73
2021/10/30 10:20:53;;;;;;;12.27;10.60;;;;;;;15.36;63.16;100766.88;5009965;28;20205;-72
2021/10/30 10:23:20;;;;;;;15.67;11.50;;;;;;;15.26;63.66;100768.59;4997721;28;20278;-73
2021/10/30 10:25:55;;;;;;;13.20;10.70;;;;;;;16.54;61.05;100757.88;4957606;28;20294;-73
2021/10/30 10:28:33;;;;;;;12.57;10.00;;;;;;;18.21;54.82;100758.03;5006120;28;20230;-73
2021/10/30 10:31:12;;;;;;;10.60;9.30;;;;;;;22.10;44.64;100728.97;5009225;28;20190;-73
2021/10/30 10:33:39;;;;;;;10.55;9.45;;;;;;;24.43;40.67;100716.59;5007214;28;20656;-73
2021/10/30 10:36:13;;;;;;;9.38;8.40;;;;;;;23.18;41.74;100720.31;5007857;28;20191;-73
2021/10/30 10:38:57;;;;;;;10.13;9.00;;;;;;;22.03;44.86;100724.84;5000276;28;20310;-73
2021/10/30 10:41:41;;;;;;;10.85;8.30;;;;;;;20.47;47.84;100721.09;5007104;28;20252;-74
2021/10/30 10:44:11;;;;;;;9.70;8.70;;;;;;;20.38;48.64;100719.56;5008349;28;20643;-73
2021/10/30 10:46:52;;;;;;;9.13;8.23;;;;;;;21.16;46.04;100704.66;5007763;28;20210;-73
2021/10/30 10:49:29;;;;;;;9.57;8.57;;;;;;;22.25;44.50;100695.47;5008295;28;20194;-73
2021/10/30 10:52:04;;;;;;;12.68;8.68;;;;;;;20.98;46.50;100688.63;5007623;28;20202;-73
2021/10/30 10:54:54;;;;;;;9.27;8.37;;;;;;;19.45;48.74;100689.44;5006866;28;20249;-73
2021/10/30 10:57:24;;;;;;;9.23;8.20;;;;;;;19.53;49.69;100687.56;5005443;28;20188;-73
2021/10/30 11:00:00;;;;;;;9.67;8.30;;;;;;;18.52;52.30;100675.50;5007777;28;20187;-74
2021/10/30 11:02:31;;;;;;;9.93;8.30;;;;;;;17.95;54.17;100681.44;5006948;28;20198;-73
2021/10/30 11:05:09;;;;;;;9.50;8.47;;;;;;;17.60;54.58;100679.28;5007329;28;20219;-73
2021/10/30 11:08:02;;;;;;;10.83;7.83;;;;;;;18.58;53.06;100675.38;5001601;28;20298;-73
2021/10/30 11:10:30;;;;;;;11.50;8.40;;;;;;;17.71;54.70;100672.28;4974924;28;20203;-73
2021/10/30 11:13:01;;;;;;;11.07;8.60;;;;;;;17.31;55.51;100667.56;5002716;28;20237;-73
2021/10/30 11:15:29;;;;;;;9.67;8.70;;;;;;;17.30;56.77;100660.63;5002319;28;20221;-73
2021/10/30 11:18:10;;;;;;;10.77;8.20;;;;;;;17.05;57.88;100643.66;5004767;28;20649;-72
2021/10/30 11:20:49;;;;;;;9.53;8.50;;;;;;;16.69;57.16;100631.06;4998409;28;20199;-73